Sun Valley, ID

6:10 PM MDT on October 21, 2014 (GMT -0600)
Stanley | Change Station
CLOSE
Current Station
Airport
Location: Stanley,
Elevation: 6496 ft
Nearby Weather Stations

Elev 6496 ft 44.17 °N, 114.93 °W | Updated 19 minutes ago

Mostly Cloudy
Mostly Cloudy
40 °F
Feels Like 40 °F
N
0
Wind Variable Wind from North
Gusts 15 mph

Today
High -- | Low -- °F
--% Chance of Precip.
Yesterday
High -- | Low -- °F
Precip. -- in
7:58 AM 6:43 PM
Waning Crescent, 4% visible
Pressure 29.95 in
Visibility -9999.0 miles
Clouds
Dew Point 30 °F
Humidity 68%
Rainfall 0.38 in
Snow Depth 0 in , 1 in , 0 in
UV Not available.
Pollen .40 out of 12
Air Quality Not available.
Flu Activity Sporadic
METAR KSNT 212351Z AUTO 00000KT 04/M01 A3007 RMK AO1 SLP141 60002 T00441011 10061 20033 51010

More Conditions Fewer Conditions

Pressure 29.95 in
Visibility -9999.0 miles
Clouds
Dew Point 30 °F
Humidity 68%
Rainfall 0.38 in
Snow Depth 0 in , 1 in , 0 in
UV Not available.
Pollen .40 out of 12
Air Quality Not available.
Flu Activity Sporadic
METAR KSNT 212351Z AUTO 00000KT 04/M01 A3007 RMK AO1 SLP141 60002 T00441011 10061 20033 51010

More Conditions Fewer Conditions

10-Day Weather Forecast

Almanac

Astronomy

Oct. 21, 2014 Rise Set
Actual Time 7:58 AM MDT 6:43 PM MDT
Civil Twilight 7:29 AM MDT 7:12 PM MDT
Nautical Twilight 6:56 AM MDT 7:46 PM MDT
Astronomical Twilight 6:22 AM MDT 8:19 PM MDT
Moon 5:43 AM MDT (10/21) 5:43 PM MDT (10/21)
Length of Visible Light 11h 43m
Length of Day
10h 44m
Tomorrow will be 2m 50s shorter.
Waning Crescent, 4% of the Moon is Illuminated
Today
Waning Crescent
Oct 23
New
Oct 30
First Quarter
Nov 6
Full
Nov 14
Last Quarter

Today's Extremes

State Highs State Lows

Community

WunderPhotos

Upload Photos

1,763,826 photos uploaded!

Nearby

Snow Depth

Station Depth Elevation
Hyndman 0 in 7440 ft
Lost-Wood Divide 1 in 7900 ft
Swede Peak 0 in 7640 ft
Galena 0 in 7440 ft
Galena Summit 0 in 8780 ft

Earthquake Activity

City Distance Mag. Time & Date
No recent earthquake activity has been reported nearby.
Minimum magnitude displayed is 2.5.

Coastal Water Temperatures

Place Temperature
No Stations Reporting

Nearby Weather Stations